Wetterdaten August 2003

 

Datum Tiefsttemp. Hchsttemp. Luftdruck Regen Wind
01.08.2003 14,3 C 29,2 C 1020 hpa 0,0 mm 5,0 km/h
02.08.2003 17,2 C 30,4 C 1021 hpa 0,0 mm 7,9 km/h
03.08.2003 16,7 C 31,2 C 1022 hpa 0,0 mm 8,6 km/h
04.08.2003 17,2 C 31,7 C 1023 hpa 0,0 mm 4,3 km/h
05.08.2003 17,2 C 33,1 C 1024 hpa 0,0 mm 7,2 km/h
06.08.2003 19,5 C 34,8 C 1023 hpa 0,0 mm 7,2 km/h
07.08.2003 23,2 C 36,1 C 1021 hpa 0,0 mm 12,6 km/h
08.08.2003 21,8 C 37,6 C 1019 hpa 0,0 mm 6,5 km/h
09.08.2003 20,9 C 33,9 C 1020 hpa 0,0 mm 10,1 km/h
10.08.2003 16,1 C 32,4 C 1019 hpa 0,0 mm 9,4 km/h
11.08.2003 16,9 C 33,4 C 1020 hpa 0,0 mm 10,1 km/h
12.08.2003 21,6 C 37,1 C 1021 hpa 0,0 mm 12,6 km/h
13.08.2003 20,7 C 30,7 C 1020 hpa 0,0 mm 13,4 km/h
14.08.2003 16,8 C 25,1 C 1017 hpa 0,0 mm 11,6 km/h
15.08.2003 9,6 C 23,7 C 1018 hpa 0,0 mm 7,2 km/h
16.08.2003 9,9 C 24,1 C 1018 hpa 0,0 mm 7,2 km/h
17.08.2003 13,7 C 24,6 C 1015 hpa 0,2 mm 7,9 km/h
18.08.2003 15,9 C 19,8 C 1015 hpa 9,5 mm 8,6 km/h
19.08.2003 14,8 C 24,6 C 1020 hpa 1,2 mm 13,3 km/h
20.08.2003 11,6 C 23,5 C 1019 hpa 0,0 mm 11,2 km/h
21.08.2003 11,5 C 26,1 C 1016 hpa 0,0 mm 9,4 km/h
22.08.2003 10,7 C 23,2 C 1018 hpa 0,0 mm 14,2 km/h
23.08.2003 14,5 C 26,1 C 1020 hpa 0,0 mm 8,6 km/h
24.08.2003 10,3 C 21,8 C 1019 hpa 0,0 mm 9,4 km/h
25.08.2003 11,1 C 22,0 C 1016 hpa 0,0 mm 8,6 km/h
26.08.2003 11,4 C 26,3 C 1014 hpa 0,0 mm 7,9 km/h
27.08.2003 11,6 C 21,1 C 1013 hpa 0,5 mm 7,2 km/h
28.08.2003 9,7 C 23,9 C 1004 hpa 4,7 mm 11,2 km/h
29.08.2003 11,9 C 18,9 C 1003 hpa 10,4 mm 14,8 km/h
30.08.2003 10,5 C 20,1 C 1014 hpa 10,5 mm 14,8 km/h
31.08.2003 8,3 C 19,1 C 1018 hpa 0,7 mm 15,5 km/h



Kostenlose Homepage von Beepworld
 
Verantwortlich für den Inhalt dieser Seite ist ausschließlich der
Autor dieser Homepage, kontaktierbar über dieses Formular!